sensor_id;sensor_type;location;lat;lon;timestamp;pressure;altitude;pressure_sealevel;temperature;humidity
5952;BME280;3001;42.622;23.194;2023-04-25T00:01:32;90589.59;;;14.56;89.58
5952;BME280;3001;42.622;23.194;2023-04-25T00:04:03;90589.94;;;14.54;89.23
5952;BME280;3001;42.622;23.194;2023-04-25T00:06:31;90581.00;;;14.55;89.11
5952;BME280;3001;42.622;23.194;2023-04-25T00:08:58;90557.97;;;14.61;88.60
5952;BME280;3001;42.622;23.194;2023-04-25T00:11:24;90564.72;;;14.62;89.01
5952;BME280;3001;42.622;23.194;2023-04-25T00:13:51;90555.31;;;14.42;89.46
5952;BME280;3001;42.622;23.194;2023-04-25T00:16:18;90559.53;;;14.46;89.29
5952;BME280;3001;42.622;23.194;2023-04-25T00:18:45;90557.41;;;14.52;88.56
5952;BME280;3001;42.622;23.194;2023-04-25T00:21:18;90557.56;;;14.59;87.27
5952;BME280;3001;42.622;23.194;2023-04-25T00:23:45;90548.25;;;14.42;87.57
5952;BME280;3001;42.622;23.194;2023-04-25T00:26:12;90543.22;;;14.34;88.03
5952;BME280;3001;42.622;23.194;2023-04-25T00:28:39;90540.41;;;14.27;89.04
5952;BME280;3001;42.622;23.194;2023-04-25T00:31:05;90543.72;;;14.24;89.66
5952;BME280;3001;42.622;23.194;2023-04-25T00:33:32;90544.13;;;14.41;88.19
5952;BME280;3001;42.622;23.194;2023-04-25T00:36:00;90542.44;;;14.33;88.12
5952;BME280;3001;42.622;23.194;2023-04-25T00:38:28;90550.53;;;14.28;88.60
5952;BME280;3001;42.622;23.194;2023-04-25T00:40:54;90540.78;;;14.25;88.55
5952;BME280;3001;42.622;23.194;2023-04-25T00:43:23;90542.19;;;14.23;88.71
5952;BME280;3001;42.622;23.194;2023-04-25T00:45:50;90544.13;;;14.10;89.90
5952;BME280;3001;42.622;23.194;2023-04-25T00:48:19;90526.19;;;14.09;88.78
5952;BME280;3001;42.622;23.194;2023-04-25T00:50:52;90529.66;;;14.13;89.16
5952;BME280;3001;42.622;23.194;2023-04-25T00:53:19;90535.38;;;14.03;89.04
5952;BME280;3001;42.622;23.194;2023-04-25T00:55:47;90514.47;;;14.03;89.22
5952;BME280;3001;42.622;23.194;2023-04-25T00:58:16;90506.34;;;13.89;90.22
5952;BME280;3001;42.622;23.194;2023-04-25T01:00:43;90509.31;;;13.72;89.85
5952;BME280;3001;42.622;23.194;2023-04-25T01:03:12;90501.63;;;13.79;89.29
5952;BME280;3001;42.622;23.194;2023-04-25T01:05:39;90485.19;;;13.94;88.67
5952;BME280;3001;42.622;23.194;2023-04-25T01:08:07;90492.78;;;13.68;86.80
5952;BME280;3001;42.622;23.194;2023-04-25T01:10:34;90494.53;;;13.95;87.47
5952;BME280;3001;42.622;23.194;2023-04-25T01:13:02;90491.19;;;13.79;89.37
5952;BME280;3001;42.622;23.194;2023-04-25T01:15:29;90498.19;;;13.60;89.62
5952;BME280;3001;42.622;23.194;2023-04-25T01:17:56;90485.38;;;13.55;89.98
5952;BME280;3001;42.622;23.194;2023-04-25T01:20:24;90488.50;;;13.60;88.47
5952;BME280;3001;42.622;23.194;2023-04-25T01:22:54;90492.88;;;13.56;89.98
5952;BME280;3001;42.622;23.194;2023-04-25T01:25:21;90503.72;;;13.74;89.19
5952;BME280;3001;42.622;23.194;2023-04-25T01:27:49;90496.41;;;13.79;88.62
5952;BME280;3001;42.622;23.194;2023-04-25T01:30:15;90493.28;;;13.58;88.58
5952;BME280;3001;42.622;23.194;2023-04-25T01:32:42;90488.84;;;13.59;89.20
5952;BME280;3001;42.622;23.194;2023-04-25T01:35:11;90493.97;;;13.55;89.53
5952;BME280;3001;42.622;23.194;2023-04-25T01:37:38;90484.69;;;13.42;89.80
5952;BME280;3001;42.622;23.194;2023-04-25T01:40:08;90485.97;;;13.48;90.11
5952;BME280;3001;42.622;23.194;2023-04-25T01:42:36;90487.31;;;13.42;90.28
5952;BME280;3001;42.622;23.194;2023-04-25T01:45:03;90481.25;;;13.23;91.86
5952;BME280;3001;42.622;23.194;2023-04-25T01:47:31;90485.63;;;13.34;92.09
5952;BME280;3001;42.622;23.194;2023-04-25T01:49:57;90478.56;;;13.50;92.48
5952;BME280;3001;42.622;23.194;2023-04-25T01:52:24;90484.88;;;13.49;92.91
5952;BME280;3001;42.622;23.194;2023-04-25T01:54:51;90484.94;;;13.68;93.07
5952;BME280;3001;42.622;23.194;2023-04-25T01:57:19;90473.34;;;13.35;94.76
5952;BME280;3001;42.622;23.194;2023-04-25T01:59:46;90476.50;;;13.13;97.01
5952;BME280;3001;42.622;23.194;2023-04-25T02:02:13;90474.25;;;13.42;94.62
5952;BME280;3001;42.622;23.194;2023-04-25T02:04:39;90478.72;;;13.73;93.78
5952;BME280;3001;42.622;23.194;2023-04-25T02:07:06;90464.56;;;13.74;93.80
5952;BME280;3001;42.622;23.194;2023-04-25T02:09:33;90460.53;;;13.76;92.95
5952;BME280;3001;42.622;23.194;2023-04-25T02:11:59;90461.88;;;13.85;92.27
5952;BME280;3001;42.622;23.194;2023-04-25T02:14:28;90468.41;;;14.10;91.34
5952;BME280;3001;42.622;23.194;2023-04-25T02:16:55;90473.59;;;14.60;89.21
5952;BME280;3001;42.622;23.194;2023-04-25T02:19:22;90473.84;;;14.74;88.49
5952;BME280;3001;42.622;23.194;2023-04-25T02:21:49;90477.44;;;14.85;88.10
5952;BME280;3001;42.622;23.194;2023-04-25T02:24:15;90481.56;;;14.86;88.16
5952;BME280;3001;42.622;23.194;2023-04-25T02:26:42;90474.81;;;14.85;87.77
5952;BME280;3001;42.622;23.194;2023-04-25T02:29:09;90476.66;;;14.85;87.10
5952;BME280;3001;42.622;23.194;2023-04-25T02:31:37;90467.09;;;14.92;87.49
5952;BME280;3001;42.622;23.194;2023-04-25T02:34:04;90464.41;;;15.08;86.48
5952;BME280;3001;42.622;23.194;2023-04-25T02:36:31;90466.31;;;15.11;85.67
5952;BME280;3001;42.622;23.194;2023-04-25T02:38:59;90466.81;;;14.97;86.90
5952;BME280;3001;42.622;23.194;2023-04-25T02:41:26;90457.41;;;14.93;87.16
5952;BME280;3001;42.622;23.194;2023-04-25T02:43:53;90465.31;;;14.58;88.46
5952;BME280;3001;42.622;23.194;2023-04-25T02:46:20;90450.00;;;14.57;88.10
5952;BME280;3001;42.622;23.194;2023-04-25T02:48:48;90455.91;;;14.92;88.03
5952;BME280;3001;42.622;23.194;2023-04-25T02:51:14;90466.31;;;15.11;86.69
5952;BME280;3001;42.622;23.194;2023-04-25T02:53:41;90462.44;;;15.01;87.52
5952;BME280;3001;42.622;23.194;2023-04-25T02:56:08;90464.69;;;15.03;87.17
5952;BME280;3001;42.622;23.194;2023-04-25T02:58:35;90461.25;;;14.99;87.05
5952;BME280;3001;42.622;23.194;2023-04-25T03:01:01;90463.06;;;15.17;86.11
5952;BME280;3001;42.622;23.194;2023-04-25T03:03:28;90457.47;;;14.96;85.88
5952;BME280;3001;42.622;23.194;2023-04-25T03:05:56;90462.47;;;15.05;86.24
5952;BME280;3001;42.622;23.194;2023-04-25T03:08:23;90460.91;;;15.00;87.08
5952;BME280;3001;42.622;23.194;2023-04-25T03:10:50;90460.78;;;14.93;87.17
5952;BME280;3001;42.622;23.194;2023-04-25T03:13:20;90456.38;;;14.78;87.68
5952;BME280;3001;42.622;23.194;2023-04-25T03:15:47;90461.19;;;14.76;87.75
5952;BME280;3001;42.622;23.194;2023-04-25T03:18:14;90455.28;;;14.79;87.07
5952;BME280;3001;42.622;23.194;2023-04-25T03:20:40;90453.56;;;14.87;86.79
5952;BME280;3001;42.622;23.194;2023-04-25T03:23:09;90456.16;;;14.87;86.86
5952;BME280;3001;42.622;23.194;2023-04-25T03:25:36;90457.63;;;14.84;86.24
5952;BME280;3001;42.622;23.194;2023-04-25T03:28:02;90456.44;;;14.82;85.74
5952;BME280;3001;42.622;23.194;2023-04-25T03:30:29;90460.69;;;14.90;85.86
5952;BME280;3001;42.622;23.194;2023-04-25T03:32:56;90445.88;;;14.75;86.66
5952;BME280;3001;42.622;23.194;2023-04-25T03:35:22;90454.31;;;14.68;86.45
5952;BME280;3001;42.622;23.194;2023-04-25T03:37:49;90452.13;;;14.70;86.79
5952;BME280;3001;42.622;23.194;2023-04-25T03:40:17;90459.47;;;14.65;86.69
5952;BME280;3001;42.622;23.194;2023-04-25T03:42:44;90454.59;;;14.82;85.79
5952;BME280;3001;42.622;23.194;2023-04-25T03:45:11;90441.59;;;14.67;86.11
5952;BME280;3001;42.622;23.194;2023-04-25T03:47:37;90430.44;;;14.70;86.15
5952;BME280;3001;42.622;23.194;2023-04-25T03:50:05;90431.28;;;14.55;87.46
5952;BME280;3001;42.622;23.194;2023-04-25T03:52:32;90438.16;;;14.63;86.24
5952;BME280;3001;42.622;23.194;2023-04-25T03:54:58;90445.31;;;14.66;87.14
5952;BME280;3001;42.622;23.194;2023-04-25T03:57:26;90446.69;;;14.60;87.32
5952;BME280;3001;42.622;23.194;2023-04-25T03:59:53;90441.19;;;14.65;86.08
5952;BME280;3001;42.622;23.194;2023-04-25T04:02:20;90451.31;;;14.66;86.25
5952;BME280;3001;42.622;23.194;2023-04-25T04:04:46;90453.44;;;14.61;87.30
5952;BME280;3001;42.622;23.194;2023-04-25T04:07:13;90452.19;;;14.55;87.13
5952;BME280;3001;42.622;23.194;2023-04-25T04:09:40;90458.66;;;14.42;86.47
5952;BME280;3001;42.622;23.194;2023-04-25T04:12:06;90448.59;;;14.44;87.68
5952;BME280;3001;42.622;23.194;2023-04-25T04:14:35;90452.81;;;14.48;88.08
5952;BME280;3001;42.622;23.194;2023-04-25T04:17:01;90446.34;;;14.61;87.03
5952;BME280;3001;42.622;23.194;2023-04-25T04:19:28;90440.66;;;14.56;87.14
5952;BME280;3001;42.622;23.194;2023-04-25T04:21:55;90434.03;;;14.62;87.08
5952;BME280;3001;42.622;23.194;2023-04-25T04:24:21;90448.06;;;14.54;86.81
5952;BME280;3001;42.622;23.194;2023-04-25T04:26:49;90448.59;;;14.63;85.63
5952;BME280;3001;42.622;23.194;2023-04-25T04:29:16;90460.84;;;14.78;86.06
5952;BME280;3001;42.622;23.194;2023-04-25T04:31:48;90442.56;;;14.78;86.87
5952;BME280;3001;42.622;23.194;2023-04-25T04:34:15;90442.84;;;14.73;86.32
5952;BME280;3001;42.622;23.194;2023-04-25T04:36:43;90451.09;;;14.75;85.13
5952;BME280;3001;42.622;23.194;2023-04-25T04:39:10;90447.88;;;14.81;84.87
5952;BME280;3001;42.622;23.194;2023-04-25T04:41:37;90456.16;;;15.06;83.07
5952;BME280;3001;42.622;23.194;2023-04-25T04:44:04;90455.41;;;15.05;83.65
5952;BME280;3001;42.622;23.194;2023-04-25T04:46:31;90465.72;;;14.98;85.70
5952;BME280;3001;42.622;23.194;2023-04-25T04:49:04;90467.59;;;14.79;84.04
5952;BME280;3001;42.622;23.194;2023-04-25T04:51:31;90462.28;;;14.94;84.38
5952;BME280;3001;42.622;23.194;2023-04-25T04:53:58;90460.03;;;14.93;83.56
5952;BME280;3001;42.622;23.194;2023-04-25T04:56:27;90460.06;;;14.96;81.71
5952;BME280;3001;42.622;23.194;2023-04-25T04:58:54;90463.75;;;14.92;82.52
5952;BME280;3001;42.622;23.194;2023-04-25T05:01:21;90464.34;;;15.04;83.14
5952;BME280;3001;42.622;23.194;2023-04-25T05:03:48;90474.16;;;15.11;83.78
5952;BME280;3001;42.622;23.194;2023-04-25T05:06:16;90469.09;;;14.99;84.44
5952;BME280;3001;42.622;23.194;2023-04-25T05:08:43;90465.47;;;15.03;83.80
5952;BME280;3001;42.622;23.194;2023-04-25T05:11:10;90469.03;;;14.95;84.62
5952;BME280;3001;42.622;23.194;2023-04-25T05:13:36;90478.94;;;14.86;84.66
5952;BME280;3001;42.622;23.194;2023-04-25T05:16:03;90469.38;;;14.94;84.25
5952;BME280;3001;42.622;23.194;2023-04-25T05:18:30;90472.13;;;15.01;83.96
5952;BME280;3001;42.622;23.194;2023-04-25T05:20:57;90475.44;;;14.79;84.18
5952;BME280;3001;42.622;23.194;2023-04-25T05:23:25;90473.31;;;14.84;83.84
5952;BME280;3001;42.622;23.194;2023-04-25T05:25:53;90478.34;;;14.93;83.32
5952;BME280;3001;42.622;23.194;2023-04-25T05:28:19;90465.72;;;14.79;82.25
5952;BME280;3001;42.622;23.194;2023-04-25T05:30:46;90461.88;;;14.92;82.42
5952;BME280;3001;42.622;23.194;2023-04-25T05:33:13;90460.66;;;14.86;82.58
5952;BME280;3001;42.622;23.194;2023-04-25T05:35:39;90457.53;;;15.00;82.10
5952;BME280;3001;42.622;23.194;2023-04-25T05:38:06;90460.16;;;15.00;83.28
5952;BME280;3001;42.622;23.194;2023-04-25T05:40:34;90467.97;;;15.19;83.09
5952;BME280;3001;42.622;23.194;2023-04-25T05:43:01;90461.97;;;15.18;83.36
5952;BME280;3001;42.622;23.194;2023-04-25T05:45:28;90467.34;;;15.25;82.98
5952;BME280;3001;42.622;23.194;2023-04-25T05:47:54;90463.44;;;15.16;81.89
5952;BME280;3001;42.622;23.194;2023-04-25T05:50:21;90469.91;;;15.22;83.65
5952;BME280;3001;42.622;23.194;2023-04-25T05:52:48;90479.88;;;15.35;83.60
5952;BME280;3001;42.622;23.194;2023-04-25T05:55:14;90473.72;;;15.28;82.53
5952;BME280;3001;42.622;23.194;2023-04-25T05:57:42;90475.34;;;15.32;81.77
5952;BME280;3001;42.622;23.194;2023-04-25T06:00:12;90468.31;;;15.17;80.97
5952;BME280;3001;42.622;23.194;2023-04-25T06:02:40;90476.63;;;15.23;81.94
5952;BME280;3001;42.622;23.194;2023-04-25T06:05:08;90470.19;;;15.17;81.88
5952;BME280;3001;42.622;23.194;2023-04-25T06:07:35;90465.19;;;14.89;82.64
5952;BME280;3001;42.622;23.194;2023-04-25T06:10:01;90471.94;;;14.71;82.77
5952;BME280;3001;42.622;23.194;2023-04-25T06:12:31;90468.72;;;15.38;81.28
5952;BME280;3001;42.622;23.194;2023-04-25T06:14:59;90459.88;;;14.86;83.68
5952;BME280;3001;42.622;23.194;2023-04-25T06:17:26;90458.88;;;14.71;84.94
5952;BME280;3001;42.622;23.194;2023-04-25T06:19:53;90467.19;;;14.77;82.10
5952;BME280;3001;42.622;23.194;2023-04-25T06:22:19;90465.19;;;14.89;83.88
5952;BME280;3001;42.622;23.194;2023-04-25T06:24:46;90460.25;;;14.84;82.41
5952;BME280;3001;42.622;23.194;2023-04-25T06:27:13;90463.25;;;15.05;82.54
5952;BME280;3001;42.622;23.194;2023-04-25T06:29:39;90463.56;;;15.23;82.01
5952;BME280;3001;42.622;23.194;2023-04-25T06:32:07;90474.22;;;15.33;81.12
5952;BME280;3001;42.622;23.194;2023-04-25T06:34:34;90467.16;;;15.56;80.65
5952;BME280;3001;42.622;23.194;2023-04-25T06:37:00;90473.66;;;16.14;78.13
5952;BME280;3001;42.622;23.194;2023-04-25T06:39:27;90472.25;;;16.20;79.76
5952;BME280;3001;42.622;23.194;2023-04-25T06:41:54;90480.56;;;16.51;75.08
5952;BME280;3001;42.622;23.194;2023-04-25T06:44:20;90484.50;;;16.64;76.98
5952;BME280;3001;42.622;23.194;2023-04-25T06:46:48;90490.06;;;16.59;75.16
5952;BME280;3001;42.622;23.194;2023-04-25T06:49:16;90476.03;;;16.78;72.45
5952;BME280;3001;42.622;23.194;2023-04-25T06:51:43;90487.75;;;16.54;72.68
5952;BME280;3001;42.622;23.194;2023-04-25T06:54:09;90491.44;;;16.50;73.71
5952;BME280;3001;42.622;23.194;2023-04-25T06:56:36;90492.44;;;16.42;72.64
5952;BME280;3001;42.622;23.194;2023-04-25T06:59:03;90492.78;;;16.14;75.77
5952;BME280;3001;42.622;23.194;2023-04-25T07:01:29;90494.72;;;16.21;75.42
5952;BME280;3001;42.622;23.194;2023-04-25T07:03:56;90501.78;;;16.43;75.57
5952;BME280;3001;42.622;23.194;2023-04-25T07:06:24;90497.41;;;16.50;74.04
5952;BME280;3001;42.622;23.194;2023-04-25T07:08:53;90499.69;;;16.26;74.23
5952;BME280;3001;42.622;23.194;2023-04-25T07:11:21;90500.16;;;16.57;74.87
5952;BME280;3001;42.622;23.194;2023-04-25T07:13:47;90490.06;;;16.59;74.97
5952;BME280;3001;42.622;23.194;2023-04-25T07:16:14;90500.84;;;16.84;75.70
5952;BME280;3001;42.622;23.194;2023-04-25T07:18:40;90499.34;;;16.83;74.43
5952;BME280;3001;42.622;23.194;2023-04-25T07:21:07;90492.91;;;16.77;72.75
5952;BME280;3001;42.622;23.194;2023-04-25T07:23:35;90485.16;;;16.87;75.12
5952;BME280;3001;42.622;23.194;2023-04-25T07:26:02;90485.59;;;16.93;75.13
5952;BME280;3001;42.622;23.194;2023-04-25T07:28:29;90486.28;;;16.86;74.31
5952;BME280;3001;42.622;23.194;2023-04-25T07:30:56;90481.03;;;16.86;73.08
5952;BME280;3001;42.622;23.194;2023-04-25T07:33:23;90487.84;;;16.94;72.86
5952;BME280;3001;42.622;23.194;2023-04-25T07:35:50;90487.78;;;16.87;72.58
5952;BME280;3001;42.622;23.194;2023-04-25T07:38:16;90478.34;;;16.83;72.30
5952;BME280;3001;42.622;23.194;2023-04-25T07:40:44;90486.31;;;16.90;71.89
5952;BME280;3001;42.622;23.194;2023-04-25T07:43:11;90484.41;;;16.87;71.86
5952;BME280;3001;42.622;23.194;2023-04-25T07:45:41;90482.78;;;17.08;72.34
5952;BME280;3001;42.622;23.194;2023-04-25T07:48:08;90478.31;;;17.09;70.23
5952;BME280;3001;42.622;23.194;2023-04-25T07:50:35;90477.47;;;17.05;69.16
5952;BME280;3001;42.622;23.194;2023-04-25T07:53:02;90479.53;;;17.18;70.23
5952;BME280;3001;42.622;23.194;2023-04-25T07:55:29;90475.59;;;17.35;69.60
5952;BME280;3001;42.622;23.194;2023-04-25T07:57:57;90478.13;;;17.28;70.12
5952;BME280;3001;42.622;23.194;2023-04-25T08:00:23;90476.97;;;17.58;70.53
5952;BME280;3001;42.622;23.194;2023-04-25T08:02:50;90473.22;;;17.62;69.55
5952;BME280;3001;42.622;23.194;2023-04-25T08:05:17;90484.56;;;17.70;68.94
5952;BME280;3001;42.622;23.194;2023-04-25T08:07:43;90482.50;;;17.93;65.60
5952;BME280;3001;42.622;23.194;2023-04-25T08:10:10;90477.38;;;18.07;66.17
5952;BME280;3001;42.622;23.194;2023-04-25T08:12:37;90480.94;;;18.28;64.63
5952;BME280;3001;42.622;23.194;2023-04-25T08:15:06;90469.69;;;18.35;65.74
5952;BME280;3001;42.622;23.194;2023-04-25T08:17:33;90473.25;;;18.60;65.08
5952;BME280;3001;42.622;23.194;2023-04-25T08:20:00;90474.81;;;18.71;65.04
5952;BME280;3001;42.622;23.194;2023-04-25T08:22:29;90477.03;;;18.66;62.18
5952;BME280;3001;42.622;23.194;2023-04-25T08:24:56;90468.69;;;18.57;62.08
5952;BME280;3001;42.622;23.194;2023-04-25T08:27:22;90467.00;;;18.96;63.57
5952;BME280;3001;42.622;23.194;2023-04-25T08:29:50;90471.56;;;19.09;64.97
5952;BME280;3001;42.622;23.194;2023-04-25T08:32:18;90454.38;;;19.32;64.43
5952;BME280;3001;42.622;23.194;2023-04-25T08:34:46;90495.75;;;19.28;58.99
5952;BME280;3001;42.622;23.194;2023-04-25T08:37:13;90485.63;;;19.34;63.24
5952;BME280;3001;42.622;23.194;2023-04-25T08:39:40;90476.69;;;19.73;60.93
5952;BME280;3001;42.622;23.194;2023-04-25T08:42:07;90474.03;;;19.73;59.01
5952;BME280;3001;42.622;23.194;2023-04-25T08:44:34;90477.47;;;20.09;57.63
5952;BME280;3001;42.622;23.194;2023-04-25T08:47:02;90473.72;;;20.03;58.29
5952;BME280;3001;42.622;23.194;2023-04-25T08:49:31;90485.03;;;20.10;52.67
5952;BME280;3001;42.622;23.194;2023-04-25T08:51:59;90486.13;;;19.81;52.44
5952;BME280;3001;42.622;23.194;2023-04-25T08:54:27;90482.72;;;19.98;52.02
5952;BME280;3001;42.622;23.194;2023-04-25T08:56:56;90481.19;;;19.69;53.58
5952;BME280;3001;42.622;23.194;2023-04-25T08:59:23;90481.19;;;19.69;54.88
5952;BME280;3001;42.622;23.194;2023-04-25T09:01:50;90469.19;;;20.28;54.87
5952;BME280;3001;42.622;23.194;2023-04-25T09:04:17;90481.22;;;20.67;53.98
5952;BME280;3001;42.622;23.194;2023-04-25T09:06:45;90474.38;;;20.80;53.34
5952;BME280;3001;42.622;23.194;2023-04-25T09:09:12;90474.38;;;20.80;51.06
5952;BME280;3001;42.622;23.194;2023-04-25T09:11:39;90476.66;;;20.89;52.79
5952;BME280;3001;42.622;23.194;2023-04-25T09:14:14;90459.66;;;21.04;54.70
5952;BME280;3001;42.622;23.194;2023-04-25T09:16:59;90465.69;;;21.04;52.18
5952;BME280;3001;42.622;23.194;2023-04-25T09:19:28;90471.75;;;20.91;52.59
5952;BME280;3001;42.622;23.194;2023-04-25T09:21:57;90476.28;;;20.76;54.81
5952;BME280;3001;42.622;23.194;2023-04-25T09:24:35;90480.50;;;20.53;56.49
5952;BME280;3001;42.622;23.194;2023-04-25T09:27:06;90487.28;;;20.29;56.93
5952;BME280;3001;42.622;23.194;2023-04-25T09:29:34;90463.91;;;19.89;59.99
5952;BME280;3001;42.622;23.194;2023-04-25T09:32:18;90467.94;;;19.31;54.83
5952;BME280;3001;42.622;23.194;2023-04-25T09:34:46;90464.44;;;19.10;58.28
5952;BME280;3001;42.622;23.194;2023-04-25T09:37:19;90469.31;;;19.08;62.02
5952;BME280;3001;42.622;23.194;2023-04-25T09:39:47;90469.66;;;18.92;60.34
5952;BME280;3001;42.622;23.194;2023-04-25T09:42:15;90475.19;;;18.77;57.88
5952;BME280;3001;42.622;23.194;2023-04-25T09:44:43;90465.84;;;18.86;61.55
5952;BME280;3001;42.622;23.194;2023-04-25T09:47:11;90475.31;;;19.01;58.67
5952;BME280;3001;42.622;23.194;2023-04-25T09:49:40;90482.84;;;19.06;60.04
5952;BME280;3001;42.622;23.194;2023-04-25T09:52:08;90481.25;;;18.81;57.05
5952;BME280;3001;42.622;23.194;2023-04-25T09:54:37;90490.91;;;18.59;54.34
5952;BME280;3001;42.622;23.194;2023-04-25T09:57:10;90491.91;;;18.41;54.84
5952;BME280;3001;42.622;23.194;2023-04-25T09:59:39;90500.72;;;18.66;55.02
5952;BME280;3001;42.622;23.194;2023-04-25T10:02:07;90490.06;;;18.45;55.86
5952;BME280;3001;42.622;23.194;2023-04-25T10:04:35;90508.81;;;18.43;58.13
5952;BME280;3001;42.622;23.194;2023-04-25T10:07:05;90497.53;;;18.39;57.68
5952;BME280;3001;42.622;23.194;2023-04-25T10:09:32;90499.56;;;18.63;58.13
5952;BME280;3001;42.622;23.194;2023-04-25T10:12:02;90484.16;;;18.65;60.07
5952;BME280;3001;42.622;23.194;2023-04-25T10:14:29;90476.84;;;19.06;59.22
5952;BME280;3001;42.622;23.194;2023-04-25T10:16:57;90482.19;;;19.23;57.08
5952;BME280;3001;42.622;23.194;2023-04-25T10:19:24;90488.56;;;19.19;52.08
5952;BME280;3001;42.622;23.194;2023-04-25T10:21:55;90482.59;;;19.35;56.24
5952;BME280;3001;42.622;23.194;2023-04-25T10:24:25;90481.13;;;19.45;56.70
5952;BME280;3001;42.622;23.194;2023-04-25T10:26:53;90471.78;;;19.61;55.40
5952;BME280;3001;42.622;23.194;2023-04-25T10:29:25;90471.72;;;19.37;48.17
5952;BME280;3001;42.622;23.194;2023-04-25T10:31:52;90468.72;;;19.52;49.46
5952;BME280;3001;42.622;23.194;2023-04-25T10:34:19;90474.72;;;19.35;50.89
5952;BME280;3001;42.622;23.194;2023-04-25T10:36:51;90470.97;;;19.40;54.57
5952;BME280;3001;42.622;23.194;2023-04-25T10:39:22;90452.84;;;19.21;52.70
5952;BME280;3001;42.622;23.194;2023-04-25T10:41:53;90466.06;;;19.38;58.31
5952;BME280;3001;42.622;23.194;2023-04-25T10:44:21;90462.69;;;19.45;55.14
5952;BME280;3001;42.622;23.194;2023-04-25T10:46:49;90471.00;;;19.61;54.34
5952;BME280;3001;42.622;23.194;2023-04-25T10:49:37;90467.59;;;19.53;54.86
5952;BME280;3001;42.622;23.194;2023-04-25T10:52:18;90454.47;;;19.78;58.18
5952;BME280;3001;42.622;23.194;2023-04-25T10:54:48;90446.97;;;19.83;57.96
5952;BME280;3001;42.622;23.194;2023-04-25T10:57:34;90450.00;;;20.17;58.19
5952;BME280;3001;42.622;23.194;2023-04-25T11:00:07;90442.41;;;20.61;54.42
5952;BME280;3001;42.622;23.194;2023-04-25T11:02:44;90452.94;;;20.61;48.83
5952;BME280;3001;42.622;23.194;2023-04-25T11:05:20;90451.47;;;20.49;47.94
5952;BME280;3001;42.622;23.194;2023-04-25T11:07:53;90437.94;;;20.26;49.50
5952;BME280;3001;42.622;23.194;2023-04-25T11:10:25;90431.50;;;20.41;53.69
5952;BME280;3001;42.622;23.194;2023-04-25T11:12:52;90416.72;;;20.75;54.83
5952;BME280;3001;42.622;23.194;2023-04-25T11:15:18;90425.63;;;21.16;55.08
5952;BME280;3001;42.622;23.194;2023-04-25T11:17:46;90423.09;;;21.70;49.75
5952;BME280;3001;42.622;23.194;2023-04-25T11:20:13;90420.78;;;21.76;46.06
5952;BME280;3001;42.622;23.194;2023-04-25T11:22:41;90422.28;;;21.80;46.00
5952;BME280;3001;42.622;23.194;2023-04-25T11:25:09;90436.66;;;21.72;46.93
5952;BME280;3001;42.622;23.194;2023-04-25T11:27:49;90439.88;;;21.32;44.00
5952;BME280;3001;42.622;23.194;2023-04-25T11:30:16;90442.22;;;21.23;45.48
5952;BME280;3001;42.622;23.194;2023-04-25T11:32:43;90450.91;;;21.24;45.89
5952;BME280;3001;42.622;23.194;2023-04-25T11:35:12;90456.28;;;20.93;48.64
5952;BME280;3001;42.622;23.194;2023-04-25T11:37:39;90478.59;;;20.53;52.66
5952;BME280;3001;42.622;23.194;2023-04-25T11:40:07;90498.16;;;19.96;58.17
5952;BME280;3001;42.622;23.194;2023-04-25T11:42:36;90485.31;;;19.53;58.51
5952;BME280;3001;42.622;23.194;2023-04-25T11:45:04;90463.97;;;18.87;61.02
5952;BME280;3001;42.622;23.194;2023-04-25T11:47:33;90457.56;;;18.20;68.72
5952;BME280;3001;42.622;23.194;2023-04-25T11:50:01;90449.03;;;17.86;68.47
5952;BME280;3001;42.622;23.194;2023-04-25T11:52:39;90436.75;;;17.54;75.47
5952;BME280;3001;42.622;23.194;2023-04-25T11:55:07;90434.84;;;17.48;74.21
5952;BME280;3001;42.622;23.194;2023-04-25T11:57:35;90428.31;;;17.74;75.72
5952;BME280;3001;42.622;23.194;2023-04-25T12:00:09;90423.31;;;17.59;76.07
5952;BME280;3001;42.622;23.194;2023-04-25T12:02:39;90424.44;;;17.58;77.59
5952;BME280;3001;42.622;23.194;2023-04-25T12:05:06;90420.13;;;17.36;78.73
5952;BME280;3001;42.622;23.194;2023-04-25T12:07:34;90420.84;;;17.37;81.34
5952;BME280;3001;42.622;23.194;2023-04-25T12:10:06;90422.06;;;17.93;82.32
5952;BME280;3001;42.622;23.194;2023-04-25T12:12:34;90439.00;;;17.52;70.80
5952;BME280;3001;42.622;23.194;2023-04-25T12:15:11;90437.22;;;17.63;68.66
5952;BME280;3001;42.622;23.194;2023-04-25T12:17:41;90420.41;;;17.71;68.95
5952;BME280;3001;42.622;23.194;2023-04-25T12:20:09;90414.16;;;17.86;75.82
5952;BME280;3001;42.622;23.194;2023-04-25T12:22:36;90427.84;;;18.12;77.29
5952;BME280;3001;42.622;23.194;2023-04-25T12:25:03;90420.50;;;18.35;77.75
5952;BME280;3001;42.622;23.194;2023-04-25T12:27:32;90424.81;;;18.75;72.73
5952;BME280;3001;42.622;23.194;2023-04-25T12:29:59;90432.44;;;18.97;71.28
5952;BME280;3001;42.622;23.194;2023-04-25T12:32:25;90436.00;;;19.64;67.97
5952;BME280;3001;42.622;23.194;2023-04-25T12:34:52;90437.91;;;19.91;56.83
5952;BME280;3001;42.622;23.194;2023-04-25T12:56:34;90440.53;;;19.81;56.93
5952;BME280;3001;42.622;23.194;2023-04-25T12:59:01;90439.38;;;19.43;58.53
5952;BME280;3001;42.622;23.194;2023-04-25T13:01:28;90449.13;;;19.36;61.20
5952;BME280;3001;42.622;23.194;2023-04-25T13:03:55;90440.69;;;18.96;63.25
5952;BME280;3001;42.622;23.194;2023-04-25T13:06:22;90445.25;;;19.06;63.58
5952;BME280;3001;42.622;23.194;2023-04-25T13:08:49;90457.84;;;18.62;65.42
5952;BME280;3001;42.622;23.194;2023-04-25T13:11:15;90452.53;;;18.51;64.51
5952;BME280;3001;42.622;23.194;2023-04-25T13:13:44;90450.81;;;18.22;63.97
5952;BME280;3001;42.622;23.194;2023-04-25T13:16:11;90449.06;;;17.90;66.13
5952;BME280;3001;42.622;23.194;2023-04-25T13:18:39;90457.09;;;17.60;66.16
5952;BME280;3001;42.622;23.194;2023-04-25T13:21:06;90463.69;;;17.44;66.54
5952;BME280;3001;42.622;23.194;2023-04-25T13:23:33;90476.09;;;17.14;66.98
5952;BME280;3001;42.622;23.194;2023-04-25T13:25:59;90488.16;;;16.56;72.14
5952;BME280;3001;42.622;23.194;2023-04-25T13:28:27;90482.78;;;16.49;76.03
5952;BME280;3001;42.622;23.194;2023-04-25T13:30:55;90467.88;;;16.01;80.35
5952;BME280;3001;42.622;23.194;2023-04-25T13:33:21;90465.94;;;15.72;80.80